createdAt,value
2018-05-27T00:00:57.756Z,70.17
2018-05-27T00:02:32.845Z,70.07
2018-05-27T00:04:08.698Z,69.98
2018-05-27T00:05:44.595Z,69.96
2018-05-27T00:07:19.670Z,70.72
2018-05-27T00:08:55.507Z,71.27
2018-05-27T00:10:30.630Z,71.38
2018-05-27T00:12:05.712Z,71.36
2018-05-27T00:13:40.781Z,70.99
2018-05-27T00:15:15.901Z,70.75
2018-05-27T00:16:50.966Z,70.95
2018-05-27T00:18:26.828Z,71.12
2018-05-27T00:20:01.922Z,71.47
2018-05-27T00:21:37.033Z,71.58
2018-05-27T00:23:12.114Z,71.67
2018-05-27T00:24:47.177Z,71.75
2018-05-27T00:26:22.313Z,71.87
2018-05-27T00:27:57.386Z,72.04
2018-05-27T00:29:33.234Z,72.23
2018-05-27T00:31:09.063Z,72.16
2018-05-27T00:32:44.164Z,71.90
2018-05-27T00:34:19.245Z,71.61
2018-05-27T00:35:54.337Z,71.55
2018-05-27T00:37:29.428Z,71.79
2018-05-27T00:39:07.147Z,72.18
2018-05-27T00:40:42.233Z,72.11
2018-05-27T00:42:17.326Z,72.24
2018-05-27T00:43:52.440Z,72.16
2018-05-27T00:45:27.503Z,71.98
2018-05-27T00:47:02.633Z,71.67
2018-05-27T00:48:38.519Z,71.26
2018-05-27T00:50:13.593Z,71.25
2018-05-27T00:51:48.670Z,71.47
2018-05-27T00:53:41.396Z,71.67
2018-05-27T00:55:16.473Z,71.80
2018-05-27T00:56:51.569Z,71.83
2018-05-27T00:58:26.636Z,71.91
2018-05-27T01:00:01.733Z,72.01
2018-05-27T01:01:36.813Z,72.33
2018-05-27T01:03:11.900Z,72.36
2018-05-27T01:04:47.726Z,72.37
2018-05-27T01:06:22.856Z,72.14
2018-05-27T01:07:57.964Z,71.94
2018-05-27T01:09:33.090Z,71.63
2018-05-27T01:11:08.933Z,71.75
2018-05-27T01:12:44.814Z,71.68
2018-05-27T01:14:19.941Z,71.62
2018-05-27T01:15:55.019Z,71.67
2018-05-27T01:17:30.098Z,71.75
2018-05-27T01:19:05.212Z,71.75
2018-05-27T01:20:40.300Z,71.60
2018-05-27T01:22:15.418Z,71.62
2018-05-27T01:23:50.502Z,71.67
2018-05-27T01:25:25.587Z,71.70
2018-05-27T01:27:00.665Z,71.76
2018-05-27T01:28:35.773Z,71.73
2018-05-27T01:30:10.866Z,71.49
2018-05-27T01:31:45.934Z,71.39
2018-05-27T01:33:21.016Z,71.33
2018-05-27T01:34:56.131Z,71.52
2018-05-27T01:36:31.211Z,71.53
2018-05-27T01:38:07.045Z,71.63
2018-05-27T01:39:42.266Z,71.94
2018-05-27T01:41:17.387Z,72.23
2018-05-27T01:42:52.466Z,72.54
2018-05-27T01:44:27.530Z,72.87
2018-05-27T01:46:02.651Z,72.90
2018-05-27T01:47:37.736Z,72.83
2018-05-27T01:49:13.601Z,73.04
2018-05-27T01:50:48.699Z,73.15
2018-05-27T01:52:23.779Z,73.28
2018-05-27T01:53:58.894Z,73.43
2018-05-27T01:55:33.977Z,73.84
2018-05-27T01:57:09.042Z,74.18
2018-05-27T01:58:44.577Z,74.76
2018-05-27T02:00:20.461Z,74.71
2018-05-27T02:01:55.562Z,74.71
2018-05-27T02:03:30.650Z,74.14
2018-05-27T02:05:05.745Z,74.17
2018-05-27T02:06:41.623Z,74.35
2018-05-27T02:08:16.695Z,74.30
2018-05-27T02:09:51.762Z,74.26
2018-05-27T02:11:26.892Z,74.19
2018-05-27T02:13:02.003Z,74.02
2018-05-27T02:14:37.112Z,73.50
2018-05-27T02:16:12.206Z,73.09
2018-05-27T02:17:47.290Z,72.90
2018-05-27T02:19:22.386Z,72.66
2018-05-27T02:20:57.576Z,72.43
2018-05-27T02:22:32.645Z,72.24
2018-05-27T02:24:08.490Z,72.21
2018-05-27T02:25:43.623Z,72.21
2018-05-27T02:27:19.510Z,72.80
2018-05-27T02:28:54.642Z,73.25
2018-05-27T02:30:29.736Z,73.75
2018-05-27T02:32:04.811Z,74.12
2018-05-27T02:33:39.905Z,74.23
2018-05-27T02:35:15.005Z,73.90
2018-05-27T02:36:50.851Z,73.72
2018-05-27T02:38:26.706Z,73.56
2018-05-27T02:40:02.560Z,73.35
2018-05-27T02:41:38.448Z,73.39
2018-05-27T02:43:13.538Z,73.51
2018-05-27T02:44:48.631Z,73.77
2018-05-27T02:46:23.765Z,73.72
2018-05-27T02:47:58.851Z,73.48
2018-05-27T02:49:33.910Z,72.89
2018-05-27T02:51:09.007Z,72.53
2018-05-27T02:52:44.121Z,72.67
2018-05-27T02:54:19.232Z,73.06
2018-05-27T02:55:55.083Z,73.20
2018-05-27T02:57:30.977Z,73.59
2018-05-27T02:59:06.064Z,73.57
2018-05-27T03:00:41.172Z,73.54
2018-05-27T03:02:16.263Z,73.70
2018-05-27T03:03:51.377Z,73.84
2018-05-27T03:05:26.449Z,73.67
2018-05-27T03:07:01.551Z,73.69
2018-05-27T03:08:36.651Z,73.93
2018-05-27T03:10:11.737Z,74.30
2018-05-27T03:11:46.836Z,74.27
2018-05-27T03:13:21.959Z,74.76
2018-05-27T03:14:57.062Z,74.90
2018-05-27T03:16:32.149Z,74.90
2018-05-27T03:18:07.215Z,74.54
2018-05-27T03:19:42.327Z,74.65
2018-05-27T03:21:18.176Z,75.23
2018-05-27T03:22:53.245Z,75.41
2018-05-27T03:24:28.355Z,75.45
2018-05-27T03:26:03.429Z,75.33
2018-05-27T03:27:38.515Z,75.37
2018-05-27T03:29:13.612Z,75.35
2018-05-27T03:30:48.689Z,75.23
2018-05-27T03:32:23.761Z,75.19
2018-05-27T03:33:58.862Z,75.05
2018-05-27T03:35:33.972Z,74.86
2018-05-27T03:37:09.023Z,74.54
2018-05-27T03:38:44.125Z,74.24
2018-05-27T03:40:19.208Z,74.19
2018-05-27T03:41:54.306Z,73.99
2018-05-27T03:43:29.379Z,73.43
2018-05-27T03:45:05.218Z,72.76
2018-05-27T03:46:40.329Z,72.82
2018-05-27T03:48:15.507Z,72.53
2018-05-27T03:49:50.590Z,71.87
2018-05-27T03:51:25.686Z,71.31
2018-05-27T03:53:00.750Z,71.07
2018-05-27T03:54:35.877Z,70.59
2018-05-27T03:56:10.933Z,69.84
2018-05-27T03:57:46.015Z,69.71
2018-05-27T03:59:21.099Z,69.50
2018-05-27T04:00:56.968Z,69.21
2018-05-27T04:02:32.031Z,69.21
2018-05-27T04:04:24.749Z,68.84
2018-05-27T04:06:17.558Z,68.63
2018-05-27T04:08:10.398Z,68.23
2018-05-27T04:09:45.470Z,67.90
2018-05-27T04:11:20.549Z,66.44
2018-05-27T04:12:56.466Z,63.34
2018-05-27T04:14:31.628Z,61.07
2018-05-27T04:16:06.744Z,60.28
2018-05-27T04:17:41.868Z,58.05
2018-05-27T04:19:16.933Z,56.58
2018-05-27T04:20:52.013Z,54.37
2018-05-27T04:22:27.063Z,53.60
2018-05-27T04:24:02.150Z,53.46
2018-05-27T04:25:37.283Z,53.70
2018-05-27T04:27:12.340Z,55.00
2018-05-27T04:28:47.450Z,56.14
2018-05-27T04:30:22.528Z,58.74
2018-05-27T04:31:58.375Z,59.67
2018-05-27T04:33:34.232Z,60.23
2018-05-27T04:35:10.109Z,60.78
2018-05-27T04:36:45.211Z,62.18
2018-05-27T04:38:20.298Z,62.87
2018-05-27T04:39:55.410Z,63.59
2018-05-27T04:41:30.484Z,63.44
2018-05-27T04:43:05.569Z,63.72
2018-05-27T04:44:40.671Z,64.03
2018-05-27T04:46:15.784Z,64.31
2018-05-27T04:47:50.886Z,64.59
2018-05-27T04:49:25.963Z,64.64
2018-05-27T04:51:01.068Z,65.42
2018-05-27T04:52:36.187Z,65.86
2018-05-27T04:54:11.268Z,66.39
2018-05-27T04:55:46.350Z,67.03
2018-05-27T04:57:21.437Z,67.75
2018-05-27T04:58:56.556Z,68.31
2018-05-27T05:00:31.655Z,68.59
2018-05-27T05:02:06.731Z,68.14
2018-05-27T05:03:41.851Z,68.81
2018-05-27T05:05:16.920Z,69.36
2018-05-27T05:06:52.022Z,69.31
2018-05-27T05:08:27.129Z,69.88
2018-05-27T05:10:02.211Z,70.52
2018-05-27T05:11:37.295Z,70.94
2018-05-27T05:13:13.168Z,70.63
2018-05-27T05:14:48.272Z,71.05
2018-05-27T05:16:23.399Z,71.42
2018-05-27T05:17:59.331Z,71.67
2018-05-27T05:19:34.416Z,71.92
2018-05-27T05:21:09.487Z,72.04
2018-05-27T05:22:44.578Z,72.31
2018-05-27T05:24:20.795Z,72.46
2018-05-27T05:25:55.859Z,73.07
2018-05-27T05:27:31.705Z,72.79
2018-05-27T05:29:07.594Z,72.13
2018-05-27T05:30:42.664Z,71.14
2018-05-27T05:32:17.748Z,71.33
2018-05-27T05:33:52.845Z,71.64
2018-05-27T05:35:28.158Z,71.01
2018-05-27T05:37:03.258Z,70.68
2018-05-27T05:38:38.362Z,71.01
2018-05-27T05:40:13.482Z,71.18
2018-05-27T05:41:48.626Z,70.44
2018-05-27T05:43:23.693Z,70.49
2018-05-27T05:44:59.605Z,70.45
2018-05-27T05:46:34.677Z,70.69
2018-05-27T05:48:09.775Z,71.30
2018-05-27T05:49:44.882Z,71.75
2018-05-27T05:51:19.992Z,71.85
2018-05-27T05:52:55.089Z,70.66
2018-05-27T05:54:30.198Z,70.81
2018-05-27T05:56:05.329Z,70.96
2018-05-27T05:57:40.478Z,71.24
2018-05-27T05:59:15.694Z,70.87
2018-05-27T06:00:52.001Z,70.66
2018-05-27T06:02:27.885Z,70.54
2018-05-27T06:04:02.987Z,70.59
2018-05-27T06:05:38.114Z,70.58
2018-05-27T06:07:13.262Z,71.05
2018-05-27T06:08:48.362Z,70.84
2018-05-27T06:10:23.483Z,71.26
2018-05-27T06:11:59.365Z,71.22
2018-05-27T06:13:35.044Z,71.99
2018-05-27T06:15:10.093Z,72.10
2018-05-27T06:16:45.951Z,71.93
2018-05-27T06:18:21.088Z,72.13
2018-05-27T06:19:56.184Z,71.89
2018-05-27T06:21:31.272Z,72.13
2018-05-27T06:23:06.413Z,72.12
2018-05-27T06:24:41.486Z,71.70
2018-05-27T06:26:16.788Z,71.55
2018-05-27T06:27:51.903Z,71.60
2018-05-27T06:29:26.994Z,71.96
2018-05-27T06:31:02.863Z,72.35
2018-05-27T06:32:38.015Z,72.76
2018-05-27T06:34:13.089Z,73.06
2018-05-27T06:35:48.948Z,72.41
2018-05-27T06:37:24.862Z,72.72
2018-05-27T06:39:00.003Z,72.98
2018-05-27T06:40:35.087Z,72.72
2018-05-27T06:42:10.195Z,72.71
2018-05-27T06:43:45.430Z,72.75
2018-05-27T06:45:20.558Z,72.91
2018-05-27T06:46:55.855Z,73.02
2018-05-27T06:48:30.940Z,72.25
2018-05-27T06:50:06.087Z,72.21
2018-05-27T06:51:41.275Z,72.62
2018-05-27T06:53:16.667Z,72.69
2018-05-27T06:54:51.801Z,72.37
2018-05-27T06:56:28.124Z,71.80
2018-05-27T07:02:40.017Z,70.35
2018-05-27T07:04:15.149Z,70.94
2018-05-27T07:05:51.202Z,72.00
2018-05-27T07:07:26.333Z,72.88
2018-05-27T07:09:02.565Z,72.34
2018-05-27T07:10:40.195Z,71.78
2018-05-27T07:12:20.680Z,70.94
2018-05-27T07:14:01.728Z,70.86
2018-05-27T07:15:41.974Z,70.77
2018-05-27T07:17:19.631Z,70.09
2018-05-27T07:19:12.798Z,69.52
2018-05-27T07:20:47.908Z,70.14
2018-05-27T07:22:23.105Z,69.87
2018-05-27T07:23:58.182Z,69.77
2018-05-27T07:25:33.305Z,69.55
2018-05-27T07:27:09.232Z,69.49
2018-05-27T07:28:44.483Z,68.91
2018-05-27T07:30:19.617Z,67.96
2018-05-27T07:31:57.329Z,67.28
2018-05-27T07:33:32.491Z,67.12
2018-05-27T07:35:07.700Z,66.83
2018-05-27T07:36:44.605Z,67.54
2018-05-27T07:38:20.527Z,67.89
2018-05-27T07:39:55.850Z,67.77
2018-05-27T07:46:09.784Z,66.90
2018-05-27T07:47:45.571Z,67.22
2018-05-27T07:49:20.678Z,66.34
2018-05-27T07:50:56.615Z,64.99
2018-05-27T07:52:31.799Z,64.34
2018-05-27T07:54:07.657Z,64.19
2018-05-27T07:55:43.590Z,65.36
2018-05-27T07:57:42.272Z,64.99
2018-05-27T07:59:17.463Z,64.15
2018-05-27T08:00:52.580Z,64.41
2018-05-27T08:02:27.684Z,64.20
2018-05-27T08:04:03.694Z,64.88
2018-05-27T08:05:38.788Z,64.57
2018-05-27T08:07:14.389Z,64.52
2018-05-27T08:08:49.589Z,64.35
2018-05-27T08:10:26.193Z,63.75
2018-05-27T08:12:01.558Z,64.28
2018-05-27T08:13:36.685Z,63.59
2018-05-27T08:15:11.976Z,63.43
2018-05-27T08:16:47.937Z,62.28
2018-05-27T08:18:23.081Z,63.94
2018-05-27T08:19:58.370Z,63.69
2018-05-27T08:21:33.540Z,61.79
2018-05-27T08:23:09.232Z,62.85
2018-05-27T08:24:44.417Z,63.10
2018-05-27T08:26:19.775Z,61.92
2018-05-27T08:27:54.968Z,61.62
2018-05-27T08:29:30.110Z,61.27
2018-05-27T08:31:05.651Z,61.39
2018-05-27T08:32:40.842Z,60.64
2018-05-27T08:34:16.074Z,60.58
2018-05-27T08:35:51.866Z,59.86
2018-05-27T08:37:27.766Z,59.12
2018-05-27T08:39:06.560Z,58.99
2018-05-27T08:40:41.752Z,57.42
2018-05-27T08:42:16.901Z,56.68
2018-05-27T08:43:52.115Z,56.27
2018-05-27T08:45:27.203Z,55.03
2018-05-27T08:47:02.392Z,54.69
2018-05-27T08:48:39.616Z,54.68
2018-05-27T08:50:16.132Z,53.75
2018-05-27T08:51:52.923Z,52.94
2018-05-27T08:53:29.645Z,51.84
2018-05-27T08:55:05.499Z,53.17
2018-05-27T08:56:41.421Z,54.76
2018-05-27T08:58:16.646Z,55.77
2018-05-27T08:59:51.953Z,54.92
2018-05-27T09:01:27.214Z,54.97
2018-05-27T09:03:02.657Z,53.61
2018-05-27T09:04:37.828Z,55.00
2018-05-27T09:06:13.003Z,55.29
2018-05-27T09:07:48.177Z,56.17
2018-05-27T09:09:24.532Z,55.92
2018-05-27T09:11:00.585Z,55.76
2018-05-27T09:12:35.769Z,56.21
2018-05-27T09:14:11.616Z,56.26
2018-05-27T09:15:47.987Z,56.48
2018-05-27T09:17:23.111Z,57.26
2018-05-27T09:18:58.278Z,57.31
2018-05-27T09:20:34.561Z,56.37
2018-05-27T09:22:09.813Z,55.66
2018-05-27T09:23:47.420Z,56.75
2018-05-27T09:25:23.476Z,55.44
2018-05-27T09:26:59.596Z,55.21
2018-05-27T09:28:35.111Z,53.89
2018-05-27T09:30:13.753Z,54.52
2018-05-27T09:31:49.907Z,55.80
2018-05-27T09:33:25.986Z,55.57
2018-05-27T09:35:02.274Z,54.88
2018-05-27T09:36:37.735Z,55.17
2018-05-27T09:38:13.129Z,56.11
2018-05-27T09:39:48.349Z,55.65
2018-05-27T09:41:24.078Z,54.99
2018-05-27T09:43:00.038Z,54.78
2018-05-27T09:44:35.259Z,53.74
2018-05-27T09:46:11.205Z,54.20
2018-05-27T09:47:46.377Z,54.24
2018-05-27T09:49:21.602Z,55.34
2018-05-27T09:50:56.811Z,53.71
2018-05-27T09:52:32.084Z,53.38
2018-05-27T09:54:08.057Z,53.13
2018-05-27T09:55:43.935Z,53.27
2018-05-27T09:57:19.719Z,53.11
2018-05-27T09:58:54.970Z,52.10
2018-05-27T10:00:30.245Z,52.67
2018-05-27T10:02:06.459Z,53.25
2018-05-27T10:03:46.944Z,52.74
2018-05-27T10:05:22.837Z,52.34
2018-05-27T10:06:58.011Z,52.76
2018-05-27T10:08:34.045Z,51.99
2018-05-27T10:10:10.352Z,52.47
2018-05-27T10:11:45.598Z,50.97
2018-05-27T10:13:21.463Z,50.83
2018-05-27T10:14:57.330Z,50.66
2018-05-27T10:16:33.181Z,50.85
2018-05-27T10:18:18.791Z,51.23
2018-05-27T10:19:54.740Z,50.54
2018-05-27T10:21:30.620Z,49.51
2018-05-27T10:23:07.775Z,48.62
2018-05-27T10:24:42.965Z,48.17
2018-05-27T10:26:18.157Z,48.27
2018-05-27T10:27:54.977Z,47.89
2018-05-27T10:29:30.921Z,49.21
2018-05-27T10:31:07.591Z,47.91
2018-05-27T10:32:43.555Z,48.58
2018-05-27T10:34:18.698Z,47.58
2018-05-27T10:35:54.679Z,47.22
2018-05-27T10:37:31.269Z,46.80
2018-05-27T10:39:06.518Z,47.11
2018-05-27T10:40:41.834Z,46.87
2018-05-27T10:42:17.100Z,46.53
2018-05-27T10:43:53.594Z,46.14
2018-05-27T10:45:29.632Z,45.62
2018-05-27T10:47:05.921Z,46.10
2018-05-27T10:48:41.139Z,46.93
2018-05-27T10:50:16.930Z,46.06
2018-05-27T10:51:52.154Z,45.23
2018-05-27T10:53:27.524Z,44.99
2018-05-27T10:55:03.579Z,46.11
2018-05-27T10:56:38.860Z,44.92
2018-05-27T10:58:14.520Z,45.39
2018-05-27T10:59:49.606Z,46.61
2018-05-27T11:01:24.706Z,46.64
2018-05-27T11:02:59.776Z,47.05
2018-05-27T11:04:34.888Z,46.39
2018-05-27T11:06:09.968Z,47.34
2018-05-27T11:07:45.046Z,46.45
2018-05-27T11:09:20.119Z,46.49
2018-05-27T11:10:55.214Z,46.70
2018-05-27T11:12:31.124Z,47.50
2018-05-27T11:14:06.199Z,47.61
2018-05-27T11:15:41.327Z,47.37
2018-05-27T11:17:16.419Z,47.18
2018-05-27T11:18:51.511Z,46.65
2018-05-27T11:20:26.612Z,46.73
2018-05-27T11:22:01.681Z,46.47
2018-05-27T11:23:36.755Z,46.72
2018-05-27T11:25:11.855Z,46.29
2018-05-27T11:26:46.930Z,46.81
2018-05-27T11:28:22.052Z,45.82
2018-05-27T11:29:57.182Z,44.88
2018-05-27T11:31:33.003Z,44.56
2018-05-27T11:33:08.886Z,44.74
2018-05-27T11:34:43.957Z,44.62
2018-05-27T11:36:19.348Z,44.69
2018-05-27T11:38:17.853Z,44.33
2018-05-27T11:39:52.970Z,44.17
2018-05-27T11:43:34.703Z,43.91
2018-05-27T11:45:09.789Z,43.90
2018-05-27T11:46:44.848Z,43.52
2018-05-27T11:48:19.932Z,43.87
2018-05-27T11:49:55.046Z,43.50
2018-05-27T11:51:30.111Z,43.80
2018-05-27T11:53:05.182Z,44.00
2018-05-27T11:54:40.278Z,43.89
2018-05-27T11:56:15.354Z,43.17
2018-05-27T11:57:50.440Z,42.66
2018-05-27T11:59:25.504Z,42.33
2018-05-27T12:01:00.625Z,42.48
2018-05-27T12:02:36.461Z,42.32
2018-05-27T12:04:11.524Z,41.73
2018-05-27T12:05:46.612Z,40.62
2018-05-27T12:07:21.729Z,39.40
2018-05-27T12:08:56.799Z,39.33
2018-05-27T12:10:32.692Z,39.19
2018-05-27T12:12:07.759Z,40.18
2018-05-27T12:13:42.828Z,40.47
2018-05-27T12:15:17.922Z,40.55
2018-05-27T12:16:53.016Z,41.07
2018-05-27T12:18:28.113Z,41.92
2018-05-27T12:20:03.221Z,41.88
2018-05-27T12:21:38.310Z,41.70
2018-05-27T12:23:13.417Z,41.57
2018-05-27T12:24:48.506Z,42.27
2018-05-27T12:26:24.357Z,43.26
2018-05-27T12:27:59.430Z,42.67
2018-05-27T12:29:34.519Z,43.37
2018-05-27T12:31:10.380Z,43.72
2018-05-27T12:32:45.460Z,44.01
2018-05-27T12:34:20.527Z,44.13
2018-05-27T12:35:56.385Z,44.46
2018-05-27T12:37:31.463Z,44.04
2018-05-27T12:39:06.530Z,44.45
2018-05-27T12:40:42.539Z,45.15
2018-05-27T12:42:17.828Z,45.42
2018-05-27T12:43:53.111Z,45.15
2018-05-27T12:45:28.207Z,45.63
2018-05-27T12:47:03.335Z,45.44
2018-05-27T12:48:38.415Z,46.04
2018-05-27T12:50:14.257Z,46.09
2018-05-27T12:51:49.550Z,46.17
2018-05-27T12:53:24.879Z,46.32
2018-05-27T12:54:59.955Z,46.34
2018-05-27T12:56:35.844Z,47.08
2018-05-27T12:58:11.189Z,46.86
2018-05-27T12:59:46.399Z,46.80
2018-05-27T13:01:21.723Z,47.13
2018-05-27T13:02:57.167Z,46.99
2018-05-27T13:04:32.244Z,47.31
2018-05-27T13:06:07.383Z,47.15
2018-05-27T13:07:42.497Z,47.61
2018-05-27T13:09:17.628Z,48.48
2018-05-27T13:10:52.715Z,48.54
2018-05-27T13:12:28.583Z,49.30
2018-05-27T13:14:03.677Z,49.32
2018-05-27T13:15:42.295Z,53.32
2018-05-27T13:17:17.810Z,50.47
2018-05-27T13:18:53.616Z,50.34
2018-05-27T13:20:29.518Z,54.59
2018-05-27T13:22:04.748Z,55.21
2018-05-27T13:23:39.869Z,55.72
2018-05-27T13:25:15.717Z,56.62
2018-05-27T13:26:50.817Z,57.14
2018-05-27T13:28:25.920Z,58.57
2018-05-27T13:30:01.029Z,58.74
2018-05-27T13:31:36.053Z,58.59
2018-05-27T13:33:11.939Z,58.05
2018-05-27T13:34:47.024Z,58.66
2018-05-27T13:36:22.450Z,58.70
2018-05-27T13:37:58.395Z,58.71
2018-05-27T13:39:33.507Z,57.82
2018-05-27T13:41:08.611Z,57.73
2018-05-27T13:42:43.678Z,58.58
2018-05-27T13:44:18.921Z,57.65
2018-05-27T13:45:54.134Z,58.29
2018-05-27T13:47:29.232Z,58.33
2018-05-27T13:49:04.302Z,58.17
2018-05-27T13:50:39.357Z,57.64
2018-05-27T13:52:14.756Z,57.70
2018-05-27T13:53:49.826Z,57.01
2018-05-27T13:55:24.948Z,57.57
2018-05-27T13:56:59.975Z,57.17
2018-05-27T13:58:35.836Z,57.59
2018-05-27T14:00:11.007Z,58.33
2018-05-27T14:01:46.945Z,57.98
2018-05-27T14:03:22.343Z,57.67
2018-05-27T14:05:00.463Z,57.67
2018-05-27T14:06:35.612Z,57.81
2018-05-27T14:08:10.695Z,56.83
2018-05-27T14:09:45.817Z,53.73
2018-05-27T14:11:21.838Z,55.67
2018-05-27T14:12:57.326Z,56.21
2018-05-27T14:14:32.545Z,56.00
2018-05-27T14:16:08.132Z,55.33
2018-05-27T14:17:44.337Z,53.88
2018-05-27T14:19:19.934Z,52.45
2018-05-27T14:20:56.193Z,50.65
2018-05-27T14:22:33.249Z,48.41
2018-05-27T14:24:08.366Z,44.02
2018-05-27T14:25:43.497Z,43.27
2018-05-27T14:27:19.319Z,43.29
2018-05-27T14:28:54.521Z,42.60
2018-05-27T14:30:29.588Z,42.33
2018-05-27T14:32:04.661Z,41.85
2018-05-27T14:33:39.786Z,42.27
2018-05-27T14:35:14.855Z,43.07
2018-05-27T14:36:49.910Z,44.16
2018-05-27T14:38:25.138Z,43.92
2018-05-27T14:40:00.971Z,43.73
2018-05-27T14:41:36.032Z,44.75
2018-05-27T14:43:11.132Z,44.70
2018-05-27T14:44:47.295Z,45.33
2018-05-27T14:46:22.392Z,47.13
2018-05-27T14:47:57.455Z,47.90
2018-05-27T14:49:32.680Z,48.18
2018-05-27T14:51:07.765Z,48.32
2018-05-27T14:52:42.946Z,47.97
2018-05-27T14:54:18.150Z,47.52
2018-05-27T14:55:53.254Z,46.04
2018-05-27T14:57:28.438Z,46.45
2018-05-27T14:59:03.526Z,46.00
2018-05-27T15:00:38.665Z,45.48
2018-05-27T15:02:13.753Z,45.39
2018-05-27T15:03:49.640Z,45.74
2018-05-27T15:05:24.764Z,46.03
2018-05-27T15:06:59.861Z,45.31
2018-05-27T15:08:34.933Z,45.73
2018-05-27T15:10:10.014Z,46.78
2018-05-27T15:11:45.173Z,46.18
2018-05-27T15:13:20.263Z,45.27
2018-05-27T15:14:55.612Z,44.65
2018-05-27T15:16:30.677Z,45.38
2018-05-27T15:18:05.793Z,45.34
2018-05-27T15:19:40.873Z,44.67
2018-05-27T15:21:15.994Z,44.64
2018-05-27T15:22:51.859Z,45.44
2018-05-27T15:24:26.989Z,45.08
2018-05-27T15:26:02.158Z,44.83
2018-05-27T15:27:37.278Z,45.41
2018-05-27T15:29:12.476Z,44.42
2018-05-27T15:30:51.671Z,45.34
2018-05-27T15:32:26.881Z,45.91
2018-05-27T15:34:01.993Z,46.26
2018-05-27T15:35:37.129Z,45.49
2018-05-27T15:37:12.283Z,45.42
2018-05-27T15:38:47.384Z,45.13
2018-05-27T15:40:22.501Z,45.27
2018-05-27T15:41:57.667Z,45.05
2018-05-27T15:43:32.827Z,44.51
2018-05-27T15:45:08.755Z,44.49
2018-05-27T15:46:44.675Z,44.42
2018-05-27T15:48:19.928Z,44.31
2018-05-27T15:49:55.139Z,44.07
2018-05-27T15:51:31.130Z,44.27
2018-05-27T15:53:07.192Z,43.90
2018-05-27T15:54:42.758Z,44.06
2018-05-27T15:56:18.045Z,43.75
2018-05-27T15:57:53.149Z,43.70
2018-05-27T15:59:28.234Z,43.70
2018-05-27T16:01:03.350Z,42.94
2018-05-27T16:02:38.495Z,42.90
2018-05-27T16:04:13.612Z,43.39
2018-05-27T16:05:49.681Z,42.71
2018-05-27T16:07:24.763Z,42.65
2018-05-27T16:08:59.877Z,42.62
2018-05-27T16:10:35.014Z,42.90
2018-05-27T16:12:10.320Z,42.68
2018-05-27T16:13:45.603Z,42.26
2018-05-27T16:15:20.676Z,41.99
2018-05-27T16:16:56.084Z,41.70
2018-05-27T16:18:31.213Z,42.64
2018-05-27T16:20:07.096Z,43.33
2018-05-27T16:21:42.271Z,42.38
2018-05-27T16:23:17.520Z,40.56
2018-05-27T16:24:52.724Z,42.03
2018-05-27T16:26:27.841Z,42.96
2018-05-27T16:28:03.062Z,42.90
2018-05-27T16:29:38.170Z,43.15
2018-05-27T16:31:13.360Z,43.33
2018-05-27T16:32:48.439Z,44.58
2018-05-27T16:34:23.570Z,44.78
2018-05-27T16:35:58.807Z,44.28
2018-05-27T16:37:33.865Z,44.26
2018-05-27T16:39:08.963Z,45.37
2018-05-27T16:40:44.077Z,46.00
2018-05-27T16:42:19.111Z,45.42
2018-05-27T16:43:54.222Z,46.96
2018-05-27T16:45:30.045Z,46.52
2018-05-27T16:47:05.130Z,46.60
2018-05-27T16:48:40.210Z,46.80
2018-05-27T16:50:16.049Z,48.24
2018-05-27T16:51:51.171Z,48.55
2018-05-27T16:53:26.260Z,48.98
2018-05-27T16:55:01.347Z,49.03
2018-05-27T16:56:37.218Z,50.73
2018-05-27T16:58:13.097Z,51.46
2018-05-27T16:59:48.190Z,52.04
2018-05-27T17:01:23.303Z,51.40
2018-05-27T17:02:59.219Z,51.76
2018-05-27T17:04:34.386Z,51.83
2018-05-27T17:06:10.365Z,51.26
2018-05-27T17:07:45.528Z,51.76
2018-05-27T17:09:20.654Z,52.77
2018-05-27T17:10:55.772Z,53.46
2018-05-27T17:12:30.898Z,54.17
2018-05-27T17:14:07.085Z,55.02
2018-05-27T17:15:42.240Z,55.40
2018-05-27T17:17:18.106Z,54.71
2018-05-27T17:18:53.223Z,54.41
2018-05-27T17:20:28.318Z,54.70
2018-05-27T17:22:03.481Z,54.94
2018-05-27T17:23:38.592Z,55.42
2018-05-27T17:25:13.712Z,55.87
2018-05-27T17:26:48.864Z,55.27
2018-05-27T17:28:24.753Z,55.57
2018-05-27T17:30:00.477Z,56.60
2018-05-27T17:31:35.984Z,56.68
2018-05-27T17:33:12.023Z,56.65
2018-05-27T17:34:47.122Z,56.67
2018-05-27T17:36:23.102Z,56.83
2018-05-27T17:37:59.177Z,57.15
2018-05-27T17:39:34.505Z,57.19
2018-05-27T17:41:09.671Z,57.25
2018-05-27T17:42:44.788Z,57.24
2018-05-27T17:44:19.920Z,56.94
2018-05-27T17:45:55.099Z,57.08
2018-05-27T17:47:30.255Z,57.99
2018-05-27T17:49:05.410Z,57.62
2018-05-27T17:50:40.564Z,57.51
2018-05-27T17:52:15.756Z,57.54
2018-05-27T17:53:51.131Z,57.81
2018-05-27T17:55:26.619Z,58.19
2018-05-27T17:57:01.723Z,58.35
2018-05-27T17:58:38.452Z,58.37
2018-05-27T18:00:14.223Z,58.34
2018-05-27T18:01:51.438Z,58.12
2018-05-27T18:03:27.659Z,58.41
2018-05-27T18:05:11.963Z,58.72
2018-05-27T18:06:49.003Z,59.24
2018-05-27T18:08:29.489Z,60.83
2018-05-27T18:10:16.069Z,60.80
2018-05-27T18:12:03.282Z,60.83
2018-05-27T18:13:42.864Z,60.80
2018-05-27T18:15:18.872Z,60.89
2018-05-27T18:17:02.935Z,60.77
2018-05-27T18:18:38.621Z,60.93
2018-05-27T18:20:15.053Z,60.65
2018-05-27T18:21:50.253Z,61.22
2018-05-27T18:23:25.499Z,61.41
2018-05-27T18:25:00.985Z,61.82
2018-05-27T18:26:36.275Z,62.03
2018-05-27T18:28:11.503Z,61.93
2018-05-27T18:29:46.752Z,61.92
2018-05-27T18:31:28.586Z,62.03
2018-05-27T18:33:24.435Z,62.26
2018-05-27T18:34:59.611Z,62.79
2018-05-27T18:36:35.647Z,62.57
2018-05-27T18:38:17.761Z,62.68
2018-05-27T18:39:58.963Z,62.81
2018-05-27T18:41:34.561Z,62.29
2018-05-27T18:43:17.775Z,62.37
2018-05-27T18:46:45.664Z,62.90
2018-05-27T18:48:21.203Z,63.41
2018-05-27T18:49:57.032Z,63.68
2018-05-27T18:51:32.195Z,63.64
2018-05-27T18:53:07.824Z,63.76
2018-05-27T18:54:44.630Z,64.16
2018-05-27T18:56:19.902Z,64.35
2018-05-27T18:57:55.801Z,64.66
2018-05-27T18:59:35.253Z,64.63
2018-05-27T19:01:10.491Z,64.02
2018-05-27T19:02:47.859Z,64.11
2018-05-27T19:04:23.538Z,64.38
2018-05-27T19:06:11.651Z,64.30
2018-05-27T19:07:48.032Z,64.35
2018-05-27T19:09:35.030Z,65.04
2018-05-27T19:11:10.687Z,64.79
2018-05-27T19:15:00.510Z,64.78
2018-05-27T19:16:38.135Z,64.72
2018-05-27T19:18:15.302Z,64.87
2018-05-27T19:19:50.841Z,65.19
2018-05-27T19:21:26.020Z,65.37
2018-05-27T19:23:01.227Z,65.33
2018-05-27T19:24:36.448Z,65.05
2018-05-27T19:26:11.748Z,65.20
2018-05-27T19:27:47.910Z,65.03
2018-05-27T19:29:23.111Z,65.09
2018-05-27T19:30:58.342Z,65.21
2018-05-27T19:32:33.481Z,65.28
2018-05-27T19:34:08.651Z,65.02
2018-05-27T19:35:44.031Z,65.07
2018-05-27T19:37:19.263Z,65.25
2018-05-27T19:38:54.513Z,65.49
2018-05-27T19:40:30.285Z,65.16
2018-05-27T19:42:06.328Z,65.19
2018-05-27T19:43:41.459Z,65.25
2018-05-27T19:45:16.819Z,65.50
2018-05-27T19:46:52.107Z,65.58
2018-05-27T19:48:27.302Z,65.39
2018-05-27T19:50:02.694Z,65.29
2018-05-27T19:51:38.094Z,65.03
2018-05-27T19:53:13.627Z,65.25
2018-05-27T19:54:49.199Z,65.27
2018-05-27T19:56:24.367Z,65.58
2018-05-27T19:57:59.516Z,65.71
2018-05-27T19:59:36.539Z,65.81
2018-05-27T20:01:11.673Z,65.93
2018-05-27T20:02:46.811Z,65.79
2018-05-27T20:04:22.698Z,65.75
2018-05-27T20:05:57.793Z,65.98
2018-05-27T20:07:33.081Z,66.28
2018-05-27T20:09:08.199Z,66.39
2018-05-27T20:10:43.278Z,66.46
2018-05-27T20:12:18.391Z,66.71
2018-05-27T20:13:53.518Z,66.93
2018-05-27T20:15:28.644Z,66.89
2018-05-27T20:17:03.748Z,66.63
2018-05-27T20:18:38.869Z,66.10
2018-05-27T20:20:13.960Z,65.99
2018-05-27T20:21:55.146Z,66.40
2018-05-27T20:23:31.089Z,66.52
2018-05-27T20:25:06.145Z,66.40
2018-05-27T20:26:41.977Z,66.28
2018-05-27T20:28:17.933Z,65.98
2018-05-27T20:29:53.782Z,65.82
2018-05-27T20:31:29.637Z,66.18
2018-05-27T20:33:05.477Z,66.69
2018-05-27T20:34:41.365Z,66.70
2018-05-27T20:36:17.189Z,66.61
2018-05-27T20:37:52.301Z,66.60
2018-05-27T20:39:27.383Z,66.37
2018-05-27T20:41:02.546Z,66.62
2018-05-27T20:42:37.626Z,66.76
2018-05-27T20:44:12.715Z,66.97
2018-05-27T20:45:48.582Z,66.79
2018-05-27T20:47:23.650Z,66.63
2018-05-27T20:48:58.718Z,66.53